createdAt,value
2023-03-22T00:00:07.409Z,41.97
2023-03-22T00:00:57.707Z,42.82
2023-03-22T00:01:47.779Z,39.94
2023-03-22T00:02:37.846Z,38.87
2023-03-22T00:03:27.922Z,38.54
2023-03-22T00:04:17.942Z,46.07
2023-03-22T00:05:07.976Z,38.12
2023-03-22T00:05:58.039Z,35.38
2023-03-22T00:06:48.085Z,41.62
2023-03-22T00:07:38.104Z,38.00
2023-03-22T00:08:28.181Z,42.26
2023-03-22T00:09:18.245Z,41.26
2023-03-22T00:10:08.349Z,36.67
2023-03-22T00:10:58.381Z,38.23
2023-03-22T00:11:48.436Z,38.04
2023-03-22T00:12:38.465Z,39.91
2023-03-22T00:13:28.535Z,40.26
2023-03-22T00:14:18.599Z,40.26
2023-03-22T00:15:08.689Z,38.63
2023-03-22T00:15:58.766Z,35.48
2023-03-22T00:16:49.002Z,38.36
2023-03-22T00:17:39.019Z,36.47
2023-03-22T00:18:29.117Z,38.62
2023-03-22T00:19:19.132Z,39.68
2023-03-22T00:20:09.227Z,39.17
2023-03-22T00:20:59.249Z,38.08
2023-03-22T00:21:49.333Z,41.06
2023-03-22T00:22:39.349Z,40.22
2023-03-22T00:23:29.420Z,38.22
2023-03-22T00:24:19.492Z,36.09
2023-03-22T00:25:09.593Z,37.93
2023-03-22T00:25:59.831Z,34.42
2023-03-22T00:26:49.921Z,31.92
2023-03-22T00:27:39.947Z,38.03
2023-03-22T00:28:30.272Z,37.50
2023-03-22T00:29:20.298Z,35.34
2023-03-22T00:30:10.409Z,36.50
2023-03-22T00:31:00.527Z,36.65
2023-03-22T00:31:50.494Z,37.33
2023-03-22T00:32:40.560Z,36.13
2023-03-22T00:33:30.644Z,38.52
2023-03-22T00:34:20.702Z,40.49
2023-03-22T00:35:10.764Z,36.36
2023-03-22T00:36:00.797Z,38.57
2023-03-22T00:36:50.867Z,37.94
2023-03-22T00:37:41.188Z,37.23
2023-03-22T00:38:41.700Z,38.47
2023-03-22T00:39:22.324Z,35.68
2023-03-22T00:40:11.418Z,34.19
2023-03-22T00:41:01.432Z,37.61
2023-03-22T00:41:51.498Z,32.92
2023-03-22T00:42:41.553Z,34.88
2023-03-22T00:43:31.617Z,37.28
2023-03-22T00:44:21.699Z,30.88
2023-03-22T00:45:11.879Z,34.63
2023-03-22T00:46:01.998Z,39.14
2023-03-22T00:46:51.965Z,33.64
2023-03-22T00:47:42.028Z,34.85
2023-03-22T00:48:32.030Z,36.69
2023-03-22T00:49:22.100Z,36.04
2023-03-22T00:50:12.217Z,35.75
2023-03-22T00:51:02.206Z,34.46
2023-03-22T00:51:52.282Z,35.82
2023-03-22T00:52:42.344Z,37.27
2023-03-22T00:53:32.418Z,37.11
2023-03-22T00:54:22.656Z,37.74
2023-03-22T00:55:12.759Z,34.53
2023-03-22T00:56:02.791Z,35.43
2023-03-22T00:56:52.846Z,36.19
2023-03-22T00:57:42.900Z,36.07
2023-03-22T00:58:32.966Z,36.31
2023-03-22T00:59:23.032Z,34.67
2023-03-22T01:00:13.122Z,34.20
2023-03-22T01:01:03.179Z,35.92
2023-03-22T01:01:53.223Z,41.02
2023-03-22T01:02:43.273Z,40.90
2023-03-22T01:03:33.611Z,36.42
2023-03-22T01:04:23.567Z,34.85
2023-03-22T01:05:13.654Z,32.93
2023-03-22T01:06:03.701Z,36.41
2023-03-22T01:06:53.758Z,37.98
2023-03-22T01:07:43.820Z,37.53
2023-03-22T01:08:33.908Z,38.40
2023-03-22T01:09:23.962Z,35.69
2023-03-22T01:10:14.077Z,37.49
2023-03-22T01:11:04.084Z,35.58
2023-03-22T01:11:54.160Z,34.54
2023-03-22T01:12:44.306Z,35.32
2023-03-22T01:13:34.382Z,36.07
2023-03-22T01:14:24.454Z,35.56
2023-03-22T01:15:14.770Z,35.99
2023-03-22T01:16:04.837Z,34.73
2023-03-22T01:16:54.919Z,35.28
2023-03-22T01:17:44.908Z,39.81
2023-03-22T01:18:35.000Z,31.97
2023-03-22T01:19:25.017Z,34.67
2023-03-22T01:20:15.082Z,40.93
2023-03-22T01:21:05.152Z,36.81
2023-03-22T01:21:55.165Z,39.64
2023-03-22T01:22:45.189Z,40.36
2023-03-22T01:23:35.261Z,37.39
2023-03-22T01:24:25.544Z,35.02
2023-03-22T01:25:15.640Z,35.81
2023-03-22T01:26:05.676Z,35.67
2023-03-22T01:26:55.716Z,38.59
2023-03-22T01:27:45.738Z,38.95
2023-03-22T01:28:35.807Z,36.45
2023-03-22T01:29:25.871Z,36.55
2023-03-22T01:30:15.966Z,34.93
2023-03-22T01:31:06.041Z,32.64
2023-03-22T01:31:56.113Z,41.29
2023-03-22T01:32:46.103Z,34.26
2023-03-22T01:33:36.434Z,38.86
2023-03-22T01:34:26.458Z,39.25
2023-03-22T01:35:16.553Z,34.89
2023-03-22T01:36:06.591Z,39.79
2023-03-22T01:36:56.669Z,37.97
2023-03-22T01:37:46.680Z,35.99
2023-03-22T01:38:36.768Z,35.95
2023-03-22T01:39:26.766Z,34.53
2023-03-22T01:40:16.856Z,38.91
2023-03-22T01:41:06.875Z,35.10
2023-03-22T01:41:56.958Z,35.13
2023-03-22T01:42:47.320Z,37.68
2023-03-22T01:43:37.353Z,35.64
2023-03-22T01:44:27.429Z,37.44
2023-03-22T01:45:17.726Z,34.95
2023-03-22T01:46:07.798Z,35.33
2023-03-22T01:46:57.836Z,34.80
2023-03-22T01:47:47.858Z,33.90
2023-03-22T01:48:38.051Z,34.78
2023-03-22T01:49:27.967Z,33.45
2023-03-22T01:50:18.063Z,32.01
2023-03-22T01:51:08.085Z,34.35
2023-03-22T01:51:58.163Z,38.16
2023-03-22T01:52:48.258Z,36.97
2023-03-22T01:53:38.305Z,33.89
2023-03-22T01:54:28.545Z,33.93
2023-03-22T01:55:18.657Z,36.39
2023-03-22T01:56:08.656Z,35.37
2023-03-22T01:56:58.734Z,38.43
2023-03-22T01:57:48.754Z,37.92
2023-03-22T01:58:38.828Z,36.50
2023-03-22T01:59:28.907Z,37.71
2023-03-22T02:00:19.104Z,38.02
2023-03-22T02:01:09.066Z,36.57
2023-03-22T02:01:59.116Z,40.06
2023-03-22T02:02:49.238Z,37.23
2023-03-22T02:03:39.399Z,33.89
2023-03-22T02:04:29.467Z,38.67
2023-03-22T02:05:19.553Z,38.24
2023-03-22T02:06:09.843Z,40.35
2023-03-22T02:06:59.912Z,37.84
2023-03-22T02:07:49.983Z,37.07
2023-03-22T02:08:40.332Z,37.60
2023-03-22T02:09:30.378Z,39.39
2023-03-22T02:10:20.468Z,37.36
2023-03-22T02:11:10.491Z,35.93
2023-03-22T02:12:00.585Z,38.78
2023-03-22T02:12:50.925Z,38.61
2023-03-22T02:13:40.704Z,36.57
2023-03-22T02:14:30.731Z,35.02
2023-03-22T02:15:20.801Z,36.93
2023-03-22T02:16:10.926Z,40.25
2023-03-22T02:17:00.896Z,40.56
2023-03-22T02:17:51.276Z,36.59
2023-03-22T02:18:41.291Z,38.57
2023-03-22T02:19:31.314Z,33.99
2023-03-22T02:20:21.422Z,34.35
2023-03-22T02:21:11.438Z,31.61
2023-03-22T02:22:01.536Z,35.36
2023-03-22T02:22:51.545Z,35.39
2023-03-22T02:23:41.617Z,34.61
2023-03-22T02:24:31.726Z,36.54
2023-03-22T02:25:21.779Z,31.35
2023-03-22T02:26:11.847Z,35.58
2023-03-22T02:27:02.072Z,32.47
2023-03-22T02:27:52.119Z,37.20
2023-03-22T02:28:42.165Z,35.55
2023-03-22T02:29:32.220Z,35.57
2023-03-22T02:30:22.308Z,29.91
2023-03-22T02:31:12.407Z,34.54
2023-03-22T02:32:02.375Z,31.71
2023-03-22T02:32:52.431Z,33.27
2023-03-22T02:33:42.499Z,34.92
2023-03-22T02:34:32.561Z,35.25
2023-03-22T02:35:22.688Z,35.28
2023-03-22T02:36:12.873Z,35.32
2023-03-22T02:37:02.942Z,32.51
2023-03-22T02:37:53.018Z,37.62
2023-03-22T02:38:43.316Z,34.01
2023-03-22T02:39:33.382Z,33.80
2023-03-22T02:40:23.459Z,32.75
2023-03-22T02:41:13.458Z,34.17
2023-03-22T02:42:03.527Z,32.17
2023-03-22T02:42:53.594Z,32.22
2023-03-22T02:43:43.649Z,32.63
2023-03-22T02:44:33.705Z,32.47
2023-03-22T02:45:23.778Z,28.89
2023-03-22T02:46:13.839Z,34.14
2023-03-22T02:47:03.866Z,34.03
2023-03-22T02:47:53.945Z,34.87
2023-03-22T02:48:43.966Z,29.70
2023-03-22T02:49:34.296Z,28.66
2023-03-22T02:50:24.393Z,31.57
2023-03-22T02:51:14.416Z,30.08
2023-03-22T02:52:04.752Z,31.80
2023-03-22T02:52:54.834Z,31.12
2023-03-22T02:53:44.912Z,32.39
2023-03-22T02:54:35.191Z,28.63
2023-03-22T02:55:25.297Z,34.74
2023-03-22T02:56:15.353Z,31.41
2023-03-22T02:57:05.654Z,32.35
2023-03-22T02:57:55.716Z,33.76
2023-03-22T02:58:45.844Z,30.77
2023-03-22T02:59:36.103Z,29.23
2023-03-22T03:00:26.212Z,28.73
2023-03-22T03:01:16.302Z,33.52
2023-03-22T03:02:06.368Z,29.29
2023-03-22T03:02:56.384Z,31.31
2023-03-22T03:03:46.436Z,30.09
2023-03-22T03:04:36.504Z,31.89
2023-03-22T03:05:26.588Z,33.32
2023-03-22T03:06:16.628Z,31.04
2023-03-22T03:07:06.706Z,33.49
2023-03-22T03:07:56.739Z,31.31
2023-03-22T03:08:47.016Z,33.76
2023-03-22T03:09:37.100Z,28.19
2023-03-22T03:10:27.139Z,26.53
2023-03-22T03:11:17.168Z,29.71
2023-03-22T03:12:07.273Z,27.38
2023-03-22T03:12:57.269Z,35.07
2023-03-22T03:13:47.336Z,31.40
2023-03-22T03:14:37.406Z,33.18
2023-03-22T03:15:27.494Z,29.75
2023-03-22T03:16:17.708Z,28.81
2023-03-22T03:17:07.573Z,28.10
2023-03-22T03:17:57.840Z,29.01
2023-03-22T03:18:47.915Z,28.91
2023-03-22T03:19:37.942Z,32.68
2023-03-22T03:20:28.307Z,32.25
2023-03-22T03:21:18.308Z,31.42
2023-03-22T03:22:08.372Z,33.39
2023-03-22T03:22:58.433Z,35.10
2023-03-22T03:23:48.502Z,32.06
2023-03-22T03:24:39.380Z,34.42
2023-03-22T03:25:28.622Z,34.25
2023-03-22T03:26:18.654Z,34.69
2023-03-22T03:27:08.757Z,31.22
2023-03-22T03:27:58.750Z,34.96
2023-03-22T03:28:48.832Z,36.31
2023-03-22T03:29:38.872Z,34.25
2023-03-22T03:30:28.971Z,32.19
2023-03-22T03:31:19.038Z,33.81
2023-03-22T03:32:09.078Z,32.93
2023-03-22T03:32:59.109Z,36.49
2023-03-22T03:33:49.183Z,31.38
2023-03-22T03:34:39.217Z,32.99
2023-03-22T03:35:29.325Z,33.72
2023-03-22T03:36:19.549Z,32.21
2023-03-22T03:37:09.640Z,31.22
2023-03-22T03:37:59.657Z,37.32
2023-03-22T03:38:49.732Z,32.71
2023-03-22T03:39:39.765Z,33.07
2023-03-22T03:40:29.835Z,33.70
2023-03-22T03:41:19.852Z,33.95
2023-03-22T03:42:09.931Z,31.25
2023-03-22T03:42:59.996Z,34.05
2023-03-22T03:43:50.041Z,36.50
2023-03-22T03:44:40.069Z,31.60
2023-03-22T03:45:30.471Z,33.78
2023-03-22T03:46:20.457Z,32.14
2023-03-22T03:47:10.531Z,34.25
2023-03-22T03:48:00.690Z,27.49
2023-03-22T03:48:50.680Z,34.47
2023-03-22T03:49:40.707Z,34.60
2023-03-22T03:50:30.794Z,33.85
2023-03-22T03:51:20.880Z,30.74
2023-03-22T03:52:10.907Z,29.36
2023-03-22T03:53:00.957Z,35.54
2023-03-22T03:53:51.035Z,27.36
2023-03-22T03:54:41.095Z,32.81
2023-03-22T03:55:31.129Z,33.94
2023-03-22T03:56:21.143Z,31.61
2023-03-22T03:57:11.220Z,31.47
2023-03-22T03:58:01.234Z,31.73
2023-03-22T03:58:51.331Z,35.46
2023-03-22T03:59:41.339Z,34.11
2023-03-22T04:00:31.453Z,32.56
2023-03-22T04:01:21.489Z,29.30
2023-03-22T04:02:11.541Z,29.01
2023-03-22T04:03:01.572Z,34.51
2023-03-22T04:03:51.656Z,31.71
2023-03-22T04:04:41.810Z,31.92
2023-03-22T04:05:31.765Z,32.06
2023-03-22T04:06:21.794Z,32.63
2023-03-22T04:07:11.875Z,31.49
2023-03-22T04:08:02.204Z,27.70
2023-03-22T04:08:52.282Z,28.70
2023-03-22T04:09:42.309Z,32.49
2023-03-22T04:10:32.415Z,27.62
2023-03-22T04:11:22.437Z,30.78
2023-03-22T04:12:12.514Z,31.37
2023-03-22T04:13:02.544Z,31.77
2023-03-22T04:13:52.624Z,29.53
2023-03-22T04:14:42.683Z,31.86
2023-03-22T04:15:32.755Z,36.52
2023-03-22T04:16:22.804Z,38.31
2023-03-22T04:17:13.124Z,43.03
2023-03-22T04:18:03.190Z,55.01
2023-03-22T04:18:53.265Z,56.14
2023-03-22T04:19:43.560Z,62.69
2023-03-22T04:20:33.674Z,62.20
2023-03-22T04:21:23.682Z,63.30
2023-03-22T04:22:13.993Z,59.27
2023-03-22T04:23:04.066Z,57.84
2023-03-22T04:23:54.145Z,54.24
2023-03-22T04:24:44.432Z,55.78
2023-03-22T04:25:34.493Z,52.84
2023-03-22T04:26:26.583Z,50.42
2023-03-22T04:27:14.578Z,50.25
2023-03-22T04:28:04.610Z,55.78
2023-03-22T04:28:54.687Z,52.57
2023-03-22T04:29:44.783Z,53.28
2023-03-22T04:30:34.957Z,42.94
2023-03-22T04:31:25.141Z,48.99
2023-03-22T04:32:15.131Z,50.14
2023-03-22T04:33:05.154Z,52.12
2023-03-22T04:33:55.239Z,46.89
2023-03-22T04:34:45.272Z,52.49
2023-03-22T04:35:35.449Z,51.84
2023-03-22T04:36:25.386Z,48.18
2023-03-22T04:37:15.467Z,50.10
2023-03-22T04:38:05.537Z,50.08
2023-03-22T04:38:55.616Z,47.55
2023-03-22T04:39:45.649Z,50.50
2023-03-22T04:40:35.701Z,47.05
2023-03-22T04:41:25.730Z,49.51
2023-03-22T04:42:15.775Z,52.01
2023-03-22T04:43:05.812Z,50.50
2023-03-22T04:43:55.849Z,46.39
2023-03-22T04:44:45.917Z,50.12
2023-03-22T04:45:36.037Z,52.61
2023-03-22T04:46:26.062Z,50.74
2023-03-22T04:47:16.111Z,50.01
2023-03-22T04:48:06.206Z,46.88
2023-03-22T04:48:56.204Z,49.06
2023-03-22T04:49:46.233Z,45.66
2023-03-22T04:50:36.324Z,51.75
2023-03-22T04:51:26.399Z,45.83
2023-03-22T04:52:16.482Z,48.08
2023-03-22T04:53:06.508Z,48.92
2023-03-22T04:53:56.582Z,45.39
2023-03-22T04:54:46.657Z,51.13
2023-03-22T04:55:36.781Z,50.73
2023-03-22T04:56:26.824Z,54.43
2023-03-22T04:57:16.828Z,54.33
2023-03-22T04:58:06.874Z,49.11
2023-03-22T04:58:56.951Z,48.34
2023-03-22T04:59:46.983Z,52.02
2023-03-22T05:00:37.537Z,47.83
2023-03-22T05:01:27.386Z,47.57
2023-03-22T05:02:17.381Z,52.76
2023-03-22T05:03:07.561Z,50.50
2023-03-22T05:03:57.449Z,50.95
2023-03-22T05:04:47.513Z,53.19
2023-03-22T05:05:37.604Z,52.52
2023-03-22T05:06:27.646Z,53.01
2023-03-22T05:07:17.764Z,53.53
2023-03-22T05:08:07.859Z,48.06
2023-03-22T05:08:57.866Z,48.82
2023-03-22T05:09:47.903Z,56.25
2023-03-22T05:10:38.308Z,52.37
2023-03-22T05:11:27.994Z,48.47
2023-03-22T05:12:17.997Z,48.97
2023-03-22T05:13:08.087Z,55.80
2023-03-22T05:13:58.150Z,50.26
2023-03-22T05:14:48.287Z,51.62
2023-03-22T05:15:38.329Z,49.79
2023-03-22T05:16:28.409Z,57.44
2023-03-22T05:17:18.415Z,53.80
2023-03-22T05:18:08.447Z,53.83
2023-03-22T05:18:58.485Z,57.45
2023-03-22T05:19:48.522Z,58.97
2023-03-22T05:20:39.072Z,52.71
2023-03-22T05:21:28.744Z,52.50
2023-03-22T05:22:18.737Z,51.63
2023-03-22T05:23:08.836Z,50.77
2023-03-22T05:23:58.863Z,51.82
2023-03-22T05:24:48.943Z,49.18
2023-03-22T05:25:38.989Z,49.53
2023-03-22T05:26:29.023Z,49.56
2023-03-22T05:27:19.057Z,50.87
2023-03-22T05:28:09.136Z,54.79
2023-03-22T05:28:59.170Z,53.41
2023-03-22T05:29:49.250Z,48.48
2023-03-22T05:30:39.687Z,47.68
2023-03-22T05:31:29.399Z,47.79
2023-03-22T05:32:19.404Z,48.02
2023-03-22T05:33:09.518Z,50.02
2023-03-22T05:33:59.526Z,50.88
2023-03-22T05:34:49.597Z,53.49
2023-03-22T05:35:39.716Z,57.93
2023-03-22T05:36:29.969Z,61.86
2023-03-22T05:37:19.985Z,62.28
2023-03-22T05:38:10.079Z,63.40
2023-03-22T05:39:00.210Z,63.05
2023-03-22T05:39:50.156Z,64.37
2023-03-22T05:40:40.589Z,68.25
2023-03-22T05:41:30.261Z,69.76
2023-03-22T05:42:20.305Z,66.43
2023-03-22T05:43:10.432Z,73.30
2023-03-22T05:44:00.470Z,66.82
2023-03-22T05:44:50.563Z,68.24
2023-03-22T05:45:40.611Z,74.01
2023-03-22T05:46:30.738Z,71.57
2023-03-22T05:47:20.689Z,70.56
2023-03-22T05:48:10.811Z,75.41
2023-03-22T05:49:00.852Z,74.82
2023-03-22T05:49:50.901Z,69.98
2023-03-22T05:50:41.331Z,77.02
2023-03-22T05:51:30.998Z,72.75
2023-03-22T05:52:21.023Z,75.94
2023-03-22T05:53:11.133Z,75.39
2023-03-22T05:54:01.156Z,78.39
2023-03-22T05:54:51.240Z,74.55
2023-03-22T05:55:41.303Z,72.03
2023-03-22T05:56:31.325Z,68.88
2023-03-22T05:57:21.381Z,66.73
2023-03-22T05:58:11.413Z,74.89
2023-03-22T05:59:01.446Z,72.04
2023-03-22T05:59:51.521Z,69.58
2023-03-22T06:00:41.854Z,70.70
2023-03-22T06:01:31.599Z,73.03
2023-03-22T06:02:21.775Z,71.28
2023-03-22T06:03:11.774Z,73.28
2023-03-22T06:04:01.754Z,74.03
2023-03-22T06:04:51.860Z,74.63
2023-03-22T06:05:41.883Z,73.38
2023-03-22T06:06:31.924Z,69.71
2023-03-22T06:07:21.953Z,75.35
2023-03-22T06:08:12.047Z,77.03
2023-03-22T06:09:15.874Z,70.80
2023-03-22T06:09:53.146Z,69.58
2023-03-22T06:10:42.631Z,71.25
2023-03-22T06:11:32.250Z,71.95
2023-03-22T06:12:22.342Z,73.17
2023-03-22T06:13:12.514Z,71.75
2023-03-22T06:14:02.582Z,74.45
2023-03-22T06:14:52.458Z,76.29
2023-03-22T06:15:42.701Z,72.98
2023-03-22T06:16:32.744Z,77.03
2023-03-22T06:17:22.781Z,76.60
2023-03-22T06:18:12.810Z,74.64
2023-03-22T06:19:02.896Z,73.45
2023-03-22T06:19:53.364Z,77.72
2023-03-22T06:20:43.063Z,76.56
2023-03-22T06:21:33.063Z,72.94
2023-03-22T06:22:23.109Z,76.57
2023-03-22T06:23:13.136Z,76.89
2023-03-22T06:24:03.224Z,75.17
2023-03-22T06:24:53.510Z,78.38
2023-03-22T06:25:43.624Z,76.62
2023-03-22T06:26:33.647Z,77.45
2023-03-22T06:27:23.733Z,80.18
2023-03-22T06:28:13.764Z,75.28
2023-03-22T06:29:03.804Z,76.52
2023-03-22T06:29:53.868Z,74.33
2023-03-22T06:30:44.006Z,75.12
2023-03-22T06:31:33.979Z,79.94
2023-03-22T06:32:24.028Z,75.96
2023-03-22T06:33:14.064Z,74.18
2023-03-22T06:34:04.107Z,76.99
2023-03-22T06:34:54.143Z,73.36
2023-03-22T06:35:44.261Z,74.95
2023-03-22T06:36:34.241Z,76.77
2023-03-22T06:37:24.297Z,77.19
2023-03-22T06:38:14.336Z,75.19
2023-03-22T06:39:04.380Z,74.63
2023-03-22T06:39:54.413Z,76.89
2023-03-22T06:40:44.473Z,77.54
2023-03-22T06:41:34.504Z,72.45
2023-03-22T06:42:24.581Z,73.66
2023-03-22T06:43:14.612Z,76.83
2023-03-22T06:44:04.700Z,76.17
2023-03-22T06:44:54.725Z,72.12
2023-03-22T06:45:44.841Z,78.20
2023-03-22T06:46:34.864Z,78.42
2023-03-22T06:47:25.167Z,79.51
2023-03-22T06:48:15.247Z,78.05
2023-03-22T06:49:05.260Z,79.49
2023-03-22T06:49:55.286Z,79.44
2023-03-22T06:50:45.838Z,81.80
2023-03-22T06:51:35.431Z,78.91
2023-03-22T06:52:25.492Z,81.03
2023-03-22T06:53:15.493Z,79.06
2023-03-22T06:54:05.574Z,73.96
2023-03-22T06:54:55.609Z,77.38
2023-03-22T06:55:45.668Z,77.35
2023-03-22T06:56:35.705Z,76.33
2023-03-22T06:57:25.788Z,79.91
2023-03-22T06:58:15.834Z,79.18
2023-03-22T06:59:05.883Z,78.23
2023-03-22T06:59:55.920Z,75.87
2023-03-22T07:00:45.970Z,77.26
2023-03-22T07:01:36.042Z,77.15
2023-03-22T07:02:26.048Z,78.52
2023-03-22T07:03:16.078Z,73.29
2023-03-22T07:04:06.246Z,75.99
2023-03-22T07:04:56.207Z,75.55
2023-03-22T07:05:46.304Z,76.24
2023-03-22T07:06:36.347Z,75.68
2023-03-22T07:07:26.390Z,77.56
2023-03-22T07:08:16.450Z,78.48
2023-03-22T07:09:06.478Z,77.62
2023-03-22T07:09:56.504Z,72.45
2023-03-22T07:10:46.553Z,73.45
2023-03-22T07:11:36.583Z,75.90
2023-03-22T07:12:26.688Z,79.39
2023-03-22T07:13:16.699Z,70.68
2023-03-22T07:14:06.779Z,75.94
2023-03-22T07:14:56.815Z,71.08
2023-03-22T07:15:46.932Z,67.93
2023-03-22T07:16:36.930Z,77.67
2023-03-22T07:17:27.017Z,73.29
2023-03-22T07:18:17.046Z,72.88
2023-03-22T07:19:07.129Z,73.80
2023-03-22T07:19:57.155Z,71.70
2023-03-22T07:20:47.279Z,68.54
2023-03-22T07:21:37.300Z,71.00
2023-03-22T07:22:27.369Z,72.14
2023-03-22T07:23:17.632Z,66.02
2023-03-22T07:24:07.784Z,69.50
2023-03-22T07:25:00.609Z,66.05
2023-03-22T07:25:47.851Z,66.10
2023-03-22T07:26:37.880Z,66.08
2023-03-22T07:27:27.957Z,63.41
2023-03-22T07:28:18.014Z,66.18
2023-03-22T07:29:08.096Z,62.26
2023-03-22T07:29:58.105Z,67.60
2023-03-22T07:30:48.501Z,66.29
2023-03-22T07:31:38.281Z,65.11
2023-03-22T07:32:28.578Z,65.57
2023-03-22T07:33:18.584Z,62.25
2023-03-22T07:34:08.619Z,62.22
2023-03-22T07:34:58.651Z,60.49
2023-03-22T07:35:48.783Z,62.09
2023-03-22T07:36:38.785Z,60.18
2023-03-22T07:37:28.814Z,62.87
2023-03-22T07:38:18.862Z,62.86
2023-03-22T07:39:08.913Z,64.28
2023-03-22T07:39:58.997Z,66.63
2023-03-22T07:40:49.009Z,69.46
2023-03-22T07:41:39.056Z,66.12
2023-03-22T07:42:29.108Z,60.46
2023-03-22T07:43:19.141Z,65.38
2023-03-22T07:44:17.752Z,68.43
2023-03-22T07:45:00.350Z,64.65
2023-03-22T07:45:49.335Z,67.40
2023-03-22T07:46:39.410Z,65.06
2023-03-22T07:47:40.477Z,66.43
2023-03-22T07:48:22.493Z,62.63
2023-03-22T07:49:09.561Z,66.94
2023-03-22T07:49:59.629Z,63.72
2023-03-22T07:50:49.758Z,63.73
2023-03-22T07:51:39.755Z,67.41
2023-03-22T07:52:29.908Z,61.72
2023-03-22T07:53:19.972Z,64.57
2023-03-22T07:54:10.774Z,64.87
2023-03-22T07:55:00.136Z,67.95
2023-03-22T07:55:50.270Z,62.80
2023-03-22T07:56:40.259Z,64.53
2023-03-22T07:57:30.309Z,61.33
2023-03-22T07:58:20.334Z,62.15
2023-03-22T07:59:10.460Z,56.62
2023-03-22T08:00:00.454Z,61.39
2023-03-22T08:00:50.559Z,65.07
2023-03-22T08:01:40.644Z,61.94
2023-03-22T08:02:30.637Z,63.57
2023-03-22T08:03:20.713Z,66.05
2023-03-22T08:04:10.719Z,61.39
2023-03-22T08:05:00.757Z,62.07
2023-03-22T08:05:50.872Z,61.93
2023-03-22T08:06:40.889Z,60.59
2023-03-22T08:07:30.966Z,58.36
2023-03-22T08:08:20.999Z,60.61
2023-03-22T08:09:11.077Z,55.31
2023-03-22T08:10:01.373Z,56.48
2023-03-22T08:10:51.470Z,54.80
2023-03-22T08:11:41.524Z,54.20
2023-03-22T08:12:31.832Z,52.06
2023-03-22T08:13:21.875Z,52.95
2023-03-22T08:14:11.910Z,48.79
2023-03-22T08:15:01.930Z,55.25
2023-03-22T08:15:51.997Z,54.12
2023-03-22T08:16:42.099Z,57.66
2023-03-22T08:17:32.119Z,57.04
2023-03-22T08:18:22.142Z,56.05
2023-03-22T08:19:12.223Z,51.13
2023-03-22T08:20:02.262Z,52.69
2023-03-22T08:20:52.315Z,51.69
2023-03-22T08:21:42.351Z,59.51
2023-03-22T08:22:32.402Z,53.41
2023-03-22T08:23:31.673Z,53.00
2023-03-22T08:24:12.498Z,48.59
2023-03-22T08:25:02.527Z,53.13
2023-03-22T08:25:52.611Z,53.62
2023-03-22T08:26:42.656Z,51.69
2023-03-22T08:27:32.711Z,51.36
2023-03-22T08:28:22.767Z,54.12
2023-03-22T08:29:12.782Z,48.40
2023-03-22T08:30:02.824Z,51.17
2023-03-22T08:30:52.869Z,49.14
2023-03-22T08:31:42.958Z,43.82
2023-03-22T08:32:32.947Z,47.53
2023-03-22T08:33:23.028Z,45.53
2023-03-22T08:34:13.074Z,46.38
2023-03-22T08:35:03.156Z,44.40
2023-03-22T08:35:53.253Z,49.25
2023-03-22T08:36:43.249Z,40.88
2023-03-22T08:37:33.304Z,46.61
2023-03-22T08:38:23.372Z,50.77
2023-03-22T08:39:13.396Z,48.95
2023-03-22T08:40:03.517Z,44.63
2023-03-22T08:40:53.525Z,47.79
2023-03-22T08:41:43.560Z,48.88
2023-03-22T08:42:33.608Z,49.44
2023-03-22T08:43:23.717Z,45.90
2023-03-22T08:44:13.711Z,50.23
2023-03-22T08:45:03.751Z,44.86
2023-03-22T08:45:53.930Z,45.66
2023-03-22T08:46:43.858Z,41.73
2023-03-22T08:47:33.899Z,49.83
2023-03-22T08:48:24.046Z,48.74
2023-03-22T08:49:14.045Z,44.86
2023-03-22T08:50:04.067Z,49.88
2023-03-22T08:50:54.118Z,50.04
2023-03-22T08:51:44.145Z,40.43
2023-03-22T08:52:34.166Z,44.16
2023-03-22T08:53:24.256Z,45.73
2023-03-22T08:54:14.314Z,45.84
2023-03-22T08:55:04.396Z,43.10
2023-03-22T08:55:54.472Z,44.95
2023-03-22T08:56:44.502Z,45.52
2023-03-22T08:57:35.576Z,47.82
2023-03-22T08:58:24.628Z,45.54
2023-03-22T08:59:14.678Z,47.06
2023-03-22T09:00:04.873Z,47.70
2023-03-22T09:00:54.989Z,49.82
2023-03-22T09:01:45.127Z,47.06
2023-03-22T09:02:35.022Z,49.17
2023-03-22T09:03:25.132Z,53.02
2023-03-22T09:04:15.170Z,43.89
2023-03-22T09:05:05.167Z,44.74
2023-03-22T09:05:55.215Z,45.88
2023-03-22T09:06:45.386Z,38.41
2023-03-22T09:07:35.344Z,43.41
2023-03-22T09:08:25.385Z,43.43
2023-03-22T09:09:15.414Z,41.93
2023-03-22T09:10:05.493Z,42.50
2023-03-22T09:10:55.565Z,45.22
2023-03-22T09:11:45.597Z,47.17
2023-03-22T09:12:35.632Z,47.97
2023-03-22T09:13:25.707Z,49.77
2023-03-22T09:14:15.740Z,48.04
2023-03-22T09:15:05.823Z,52.77
2023-03-22T09:15:55.869Z,52.44
2023-03-22T09:16:45.870Z,49.92
2023-03-22T09:17:35.911Z,50.55
2023-03-22T09:18:25.959Z,48.96
2023-03-22T09:19:15.979Z,44.42
2023-03-22T09:20:12.914Z,52.51
2023-03-22T09:20:57.152Z,52.58
2023-03-22T09:21:46.196Z,52.61
2023-03-22T09:22:36.285Z,53.19
2023-03-22T09:23:26.346Z,50.10
2023-03-22T09:24:16.365Z,48.31
2023-03-22T09:25:06.445Z,50.08
2023-03-22T09:25:56.478Z,48.44
2023-03-22T09:26:46.652Z,44.73
2023-03-22T09:27:36.683Z,39.78
2023-03-22T09:28:26.833Z,47.28
2023-03-22T09:29:16.778Z,36.90
2023-03-22T09:30:06.850Z,37.43
2023-03-22T09:30:56.931Z,37.91
2023-03-22T09:31:46.935Z,42.87
2023-03-22T09:32:36.955Z,41.20
2023-03-22T09:33:27.037Z,40.56
2023-03-22T09:34:17.076Z,40.68
2023-03-22T09:35:07.114Z,43.51
2023-03-22T09:35:57.220Z,46.36
2023-03-22T09:36:47.237Z,49.86
2023-03-22T09:37:37.271Z,51.64
2023-03-22T09:38:27.322Z,52.04
2023-03-22T09:39:17.351Z,54.07
2023-03-22T09:40:07.439Z,59.32
2023-03-22T09:40:57.468Z,55.68
2023-03-22T09:41:47.518Z,50.38
2023-03-22T09:42:37.542Z,46.55
2023-03-22T09:43:27.627Z,43.50
2023-03-22T09:44:17.662Z,51.13
2023-03-22T09:45:07.702Z,50.78
2023-03-22T09:45:57.757Z,52.25
2023-03-22T09:46:47.808Z,50.31
2023-03-22T09:47:45.650Z,48.65
2023-03-22T09:48:28.995Z,48.74
2023-03-22T09:49:17.941Z,49.07
2023-03-22T09:50:07.983Z,45.83
2023-03-22T09:50:58.529Z,45.18
2023-03-22T09:51:48.117Z,44.92
2023-03-22T09:52:38.144Z,46.19
2023-03-22T09:53:28.317Z,51.78
2023-03-22T09:54:18.221Z,52.87
2023-03-22T09:55:08.302Z,52.04
2023-03-22T09:55:58.350Z,44.71
2023-03-22T09:56:48.406Z,47.31
2023-03-22T09:57:38.441Z,47.58
2023-03-22T09:58:28.655Z,45.71
2023-03-22T09:59:18.563Z,45.78
2023-03-22T10:00:08.639Z,46.53
2023-03-22T10:00:58.855Z,46.59
2023-03-22T10:01:48.950Z,46.96
2023-03-22T10:02:38.891Z,45.90
2023-03-22T10:03:28.829Z,46.13
2023-03-22T10:04:19.003Z,47.18
2023-03-22T10:05:08.948Z,49.55
2023-03-22T10:05:59.006Z,54.33
2023-03-22T10:06:49.121Z,52.12
2023-03-22T10:07:39.164Z,52.93
2023-03-22T10:08:29.206Z,54.52
2023-03-22T10:09:19.235Z,47.29
2023-03-22T10:10:09.313Z,50.74
2023-03-22T10:10:59.335Z,52.90
2023-03-22T10:11:49.433Z,48.94
2023-03-22T10:12:39.469Z,46.57
2023-03-22T10:13:29.504Z,42.87
2023-03-22T10:14:19.571Z,44.98
2023-03-22T10:15:09.671Z,51.20
2023-03-22T10:16:00.075Z,48.98
2023-03-22T10:16:49.999Z,51.99
2023-03-22T10:17:40.025Z,53.26
2023-03-22T10:18:30.193Z,53.32
2023-03-22T10:19:20.152Z,51.08
2023-03-22T10:20:10.207Z,49.38
2023-03-22T10:21:00.268Z,52.33
2023-03-22T10:21:50.368Z,44.09
2023-03-22T10:22:40.508Z,44.05
2023-03-22T10:23:30.585Z,46.05
2023-03-22T10:24:20.618Z,52.85
2023-03-22T10:25:10.683Z,45.75
2023-03-22T10:26:00.715Z,46.76
2023-03-22T10:26:50.816Z,49.96
2023-03-22T10:27:40.845Z,49.20
2023-03-22T10:28:30.886Z,45.97
2023-03-22T10:29:20.909Z,49.93
2023-03-22T10:30:10.997Z,51.10
2023-03-22T10:31:01.929Z,53.17
2023-03-22T10:31:51.190Z,51.08
2023-03-22T10:32:54.979Z,53.23
2023-03-22T10:33:32.220Z,52.14
2023-03-22T10:34:21.332Z,47.27
2023-03-22T10:35:11.369Z,51.73
2023-03-22T10:36:01.425Z,47.69
2023-03-22T10:36:51.480Z,48.65
2023-03-22T10:37:41.497Z,51.40
2023-03-22T10:38:31.582Z,52.21
2023-03-22T10:39:21.744Z,48.78
2023-03-22T10:40:11.778Z,47.18
2023-03-22T10:41:01.849Z,52.87
2023-03-22T10:41:51.869Z,52.02
2023-03-22T10:42:41.904Z,46.31
2023-03-22T10:43:32.061Z,50.34
2023-03-22T10:44:21.994Z,51.36